sensor_id;sensor_type;location;lat;lon;timestamp;pressure;altitude;pressure_sealevel;temperature;humidity
35892;BME280;21993;42.672;23.296;2023-04-04T00:00:25;93301.41;;;9.95;82.41
35892;BME280;21993;42.672;23.296;2023-04-04T00:02:51;93298.59;;;9.97;82.25
35892;BME280;21993;42.672;23.296;2023-04-04T00:05:16;93288.59;;;10.00;82.40
35892;BME280;21993;42.672;23.296;2023-04-04T00:07:45;93298.75;;;10.11;81.14
35892;BME280;21993;42.672;23.296;2023-04-04T00:10:11;93304.78;;;10.20;80.99
35892;BME280;21993;42.672;23.296;2023-04-04T00:12:36;93291.66;;;10.20;80.92
35892;BME280;21993;42.672;23.296;2023-04-04T00:15:02;93299.53;;;10.20;80.83
35892;BME280;21993;42.672;23.296;2023-04-04T00:17:28;93302.81;;;10.14;81.69
35892;BME280;21993;42.672;23.296;2023-04-04T00:19:53;93312.69;;;10.04;81.82
35892;BME280;21993;42.672;23.296;2023-04-04T00:22:19;93302.84;;;10.06;82.04
35892;BME280;21993;42.672;23.296;2023-04-04T00:24:44;93308.72;;;10.08;81.54
35892;BME280;21993;42.672;23.296;2023-04-04T00:27:09;93298.75;;;10.11;81.35
35892;BME280;21993;42.672;23.296;2023-04-04T00:29:35;93293.66;;;10.10;81.40
35892;BME280;21993;42.672;23.296;2023-04-04T00:32:01;93289.41;;;10.09;81.25
35892;BME280;21993;42.672;23.296;2023-04-04T00:34:27;93281.38;;;10.10;80.95
35892;BME280;21993;42.672;23.296;2023-04-04T00:36:53;93278.75;;;10.10;81.25
35892;BME280;21993;42.672;23.296;2023-04-04T00:39:18;93281.75;;;9.83;81.83
35892;BME280;21993;42.672;23.296;2023-04-04T00:41:44;93279.00;;;9.52;82.82
35892;BME280;21993;42.672;23.296;2023-04-04T00:44:12;93262.47;;;9.51;82.36
35892;BME280;21993;42.672;23.296;2023-04-04T00:46:37;93276.38;;;9.52;82.55
35892;BME280;21993;42.672;23.296;2023-04-04T00:49:03;93269.34;;;9.28;81.97
35892;BME280;21993;42.672;23.296;2023-04-04T00:51:28;93267.22;;;9.40;81.99
35892;BME280;21993;42.672;23.296;2023-04-04T00:53:53;93253.81;;;9.35;81.55
35892;BME280;21993;42.672;23.296;2023-04-04T00:56:19;93253.94;;;9.33;81.49
35892;BME280;21993;42.672;23.296;2023-04-04T00:58:47;93259.22;;;9.17;82.46
35892;BME280;21993;42.672;23.296;2023-04-04T01:01:12;93257.41;;;9.25;82.71
35892;BME280;21993;42.672;23.296;2023-04-04T01:03:38;93259.69;;;9.28;82.34
35892;BME280;21993;42.672;23.296;2023-04-04T01:06:05;93265.91;;;9.36;82.35
35892;BME280;21993;42.672;23.296;2023-04-04T01:08:31;93274.94;;;9.25;83.44
35892;BME280;21993;42.672;23.296;2023-04-04T01:10:58;93279.81;;;9.36;83.44
35892;BME280;21993;42.672;23.296;2023-04-04T01:13:25;93276.38;;;9.52;82.38
35892;BME280;21993;42.672;23.296;2023-04-04T01:15:51;93279.50;;;9.55;81.90
35892;BME280;21993;42.672;23.296;2023-04-04T01:18:20;93280.00;;;9.59;81.44
35892;BME280;21993;42.672;23.296;2023-04-04T01:20:56;93293.56;;;9.54;81.51
35892;BME280;21993;42.672;23.296;2023-04-04T01:23:41;93293.56;;;9.46;81.81
35892;BME280;21993;42.672;23.296;2023-04-04T01:26:09;93286.53;;;9.63;81.66
35892;BME280;21993;42.672;23.296;2023-04-04T01:28:34;93277.50;;;9.66;82.34
35892;BME280;21993;42.672;23.296;2023-04-04T01:31:00;93286.19;;;9.74;81.71
35892;BME280;21993;42.672;23.296;2023-04-04T01:33:39;93282.72;;;9.90;81.31
35892;BME280;21993;42.672;23.296;2023-04-04T01:36:17;93266.03;;;9.75;81.48
35892;BME280;21993;42.672;23.296;2023-04-04T01:39:45;93273.75;;;9.84;81.10
35892;BME280;21993;42.672;23.296;2023-04-04T01:41:53;93260.75;;;9.99;80.33
35892;BME280;21993;42.672;23.296;2023-04-04T01:44:20;93253.34;;;10.11;80.17
35892;BME280;21993;42.672;23.296;2023-04-04T01:46:52;93256.19;;;9.93;80.27
35892;BME280;21993;42.672;23.296;2023-04-04T01:49:17;93254.69;;;9.91;80.44
35892;BME280;21993;42.672;23.296;2023-04-04T01:51:43;93252.13;;;9.74;79.80
35892;BME280;21993;42.672;23.296;2023-04-04T01:54:09;93236.72;;;9.79;79.83
35892;BME280;21993;42.672;23.296;2023-04-04T01:56:34;93234.69;;;9.98;79.48
35892;BME280;21993;42.672;23.296;2023-04-04T01:59:00;93221.25;;;10.09;78.30
35892;BME280;21993;42.672;23.296;2023-04-04T02:01:25;93229.41;;;10.14;78.67
35892;BME280;21993;42.672;23.296;2023-04-04T02:03:51;93224.72;;;10.01;78.45
35892;BME280;21993;42.672;23.296;2023-04-04T02:06:16;93231.44;;;9.96;78.69
35892;BME280;21993;42.672;23.296;2023-04-04T02:08:42;93235.03;;;10.03;77.73
35892;BME280;21993;42.672;23.296;2023-04-04T02:11:07;93234.41;;;9.93;78.32
35892;BME280;21993;42.672;23.296;2023-04-04T02:13:33;93240.25;;;10.11;77.86
35892;BME280;21993;42.672;23.296;2023-04-04T02:15:58;93240.94;;;9.97;78.26
35892;BME280;21993;42.672;23.296;2023-04-04T02:18:26;93232.72;;;10.00;78.41
35892;BME280;21993;42.672;23.296;2023-04-04T02:20:55;93227.94;;;10.11;77.92
35892;BME280;21993;42.672;23.296;2023-04-04T02:23:23;93232.03;;;10.14;77.51
35892;BME280;21993;42.672;23.296;2023-04-04T02:25:51;93222.75;;;10.03;77.39
35892;BME280;21993;42.672;23.296;2023-04-04T02:28:17;93229.16;;;9.93;77.71
35892;BME280;21993;42.672;23.296;2023-04-04T02:30:43;93225.25;;;9.72;77.06
35892;BME280;21993;42.672;23.296;2023-04-04T02:33:08;93229.34;;;9.75;77.00
35892;BME280;21993;42.672;23.296;2023-04-04T02:35:34;93232.97;;;9.57;77.78
35892;BME280;21993;42.672;23.296;2023-04-04T02:37:59;93231.19;;;9.58;77.82
35892;BME280;21993;42.672;23.296;2023-04-04T02:40:24;93236.25;;;9.68;77.76
35892;BME280;21993;42.672;23.296;2023-04-04T02:42:50;93234.47;;;9.68;77.83
35892;BME280;21993;42.672;23.296;2023-04-04T02:45:15;93227.84;;;9.88;77.43
35892;BME280;21993;42.672;23.296;2023-04-04T02:47:41;93231.63;;;9.86;76.91
35892;BME280;21993;42.672;23.296;2023-04-04T02:50:08;93237.06;;;9.76;76.88
35892;BME280;21993;42.672;23.296;2023-04-04T02:52:33;93231.81;;;9.84;76.83
35892;BME280;21993;42.672;23.296;2023-04-04T02:54:59;93231.47;;;9.87;76.81
35892;BME280;21993;42.672;23.296;2023-04-04T02:57:24;93234.75;;;9.81;76.46
35892;BME280;21993;42.672;23.296;2023-04-04T02:59:50;93230.28;;;9.90;76.39
35892;BME280;21993;42.672;23.296;2023-04-04T03:02:15;93244.03;;;10.00;75.76
35892;BME280;21993;42.672;23.296;2023-04-04T03:04:41;93241.78;;;9.89;76.61
35892;BME280;21993;42.672;23.296;2023-04-04T03:07:06;93230.44;;;10.05;75.57
35892;BME280;21993;42.672;23.296;2023-04-04T03:09:32;93240.06;;;10.12;75.24
35892;BME280;21993;42.672;23.296;2023-04-04T03:11:57;93250.13;;;10.01;75.57
35892;BME280;21993;42.672;23.296;2023-04-04T03:14:22;93253.03;;;10.06;76.68
35892;BME280;21993;42.672;23.296;2023-04-04T03:16:51;93249.91;;;10.10;76.66
35892;BME280;21993;42.672;23.296;2023-04-04T03:19:16;93247.28;;;10.19;76.57
35892;BME280;21993;42.672;23.296;2023-04-04T03:21:42;93243.66;;;10.20;76.28
35892;BME280;21993;42.672;23.296;2023-04-04T03:24:07;93256.44;;;10.14;76.93
35892;BME280;21993;42.672;23.296;2023-04-04T03:26:33;93248.94;;;10.11;77.14
35892;BME280;21993;42.672;23.296;2023-04-04T03:28:59;93243.34;;;10.14;77.31
35892;BME280;21993;42.672;23.296;2023-04-04T03:31:24;93253.00;;;10.14;78.19
35892;BME280;21993;42.672;23.296;2023-04-04T03:33:50;93241.06;;;10.11;78.37
35892;BME280;21993;42.672;23.296;2023-04-04T03:36:15;93253.00;;;10.14;77.98
35892;BME280;21993;42.672;23.296;2023-04-04T03:38:41;93258.91;;;10.24;78.10
35892;BME280;21993;42.672;23.296;2023-04-04T03:41:07;93254.63;;;10.23;78.14
35892;BME280;21993;42.672;23.296;2023-04-04T03:43:32;93260.69;;;10.15;77.95
35892;BME280;21993;42.672;23.296;2023-04-04T03:46:02;93255.78;;;10.21;78.47
35892;BME280;21993;42.672;23.296;2023-04-04T03:48:28;93252.34;;;10.28;77.96
35892;BME280;21993;42.672;23.296;2023-04-04T03:50:58;93257.25;;;10.31;77.83
35892;BME280;21993;42.672;23.296;2023-04-04T03:53:24;93260.22;;;10.28;78.14
35892;BME280;21993;42.672;23.296;2023-04-04T03:55:50;93254.44;;;10.33;77.71
35892;BME280;21993;42.672;23.296;2023-04-04T03:58:15;93257.06;;;10.33;78.04
35892;BME280;21993;42.672;23.296;2023-04-04T04:00:41;93259.84;;;10.31;77.69
35892;BME280;21993;42.672;23.296;2023-04-04T04:03:06;93261.53;;;10.24;78.32
35892;BME280;21993;42.672;23.296;2023-04-04T04:05:31;93253.16;;;10.29;78.20
35892;BME280;21993;42.672;23.296;2023-04-04T04:07:57;93252.50;;;10.27;78.60
35892;BME280;21993;42.672;23.296;2023-04-04T04:10:22;93252.81;;;10.32;77.80
35892;BME280;21993;42.672;23.296;2023-04-04T04:12:48;93251.50;;;10.36;77.98
35892;BME280;21993;42.672;23.296;2023-04-04T04:15:13;93251.00;;;10.32;77.78
35892;BME280;21993;42.672;23.296;2023-04-04T04:17:39;93260.47;;;10.41;77.95
35892;BME280;21993;42.672;23.296;2023-04-04T04:20:07;93256.13;;;10.26;78.11
35892;BME280;21993;42.672;23.296;2023-04-04T04:22:33;93259.56;;;10.26;78.38
35892;BME280;21993;42.672;23.296;2023-04-04T04:24:58;93264.47;;;10.29;78.63
35892;BME280;21993;42.672;23.296;2023-04-04T04:27:24;93262.34;;;10.25;78.83
35892;BME280;21993;42.672;23.296;2023-04-04T04:29:50;93259.06;;;10.23;78.80
35892;BME280;21993;42.672;23.296;2023-04-04T04:32:16;93276.75;;;10.21;78.91
35892;BME280;21993;42.672;23.296;2023-04-04T04:34:41;93271.00;;;10.33;78.88
35892;BME280;21993;42.672;23.296;2023-04-04T04:37:07;93276.94;;;10.27;78.89
35892;BME280;21993;42.672;23.296;2023-04-04T04:39:32;93282.47;;;10.32;78.67
35892;BME280;21993;42.672;23.296;2023-04-04T04:41:58;93288.22;;;10.36;78.78
35892;BME280;21993;42.672;23.296;2023-04-04T04:44:23;93283.78;;;10.36;78.55
35892;BME280;21993;42.672;23.296;2023-04-04T04:46:49;93285.59;;;10.36;78.37
35892;BME280;21993;42.672;23.296;2023-04-04T04:49:14;93297.53;;;10.38;78.04
35892;BME280;21993;42.672;23.296;2023-04-04T04:51:40;93296.72;;;10.38;78.14
35892;BME280;21993;42.672;23.296;2023-04-04T04:54:07;93305.75;;;10.35;78.51
35892;BME280;21993;42.672;23.296;2023-04-04T04:56:32;93301.47;;;10.42;78.04
35892;BME280;21993;42.672;23.296;2023-04-04T04:58:57;93301.78;;;10.39;78.30
35892;BME280;21993;42.672;23.296;2023-04-04T05:01:23;93305.06;;;10.41;78.71
35892;BME280;21993;42.672;23.296;2023-04-04T05:03:49;93310.63;;;10.47;78.49
35892;BME280;21993;42.672;23.296;2023-04-04T05:06:14;93316.72;;;10.39;78.79
35892;BME280;21993;42.672;23.296;2023-04-04T05:08:39;93313.75;;;10.42;78.76
35892;BME280;21993;42.672;23.296;2023-04-04T05:11:05;93324.38;;;10.49;78.33
35892;BME280;21993;42.672;23.296;2023-04-04T05:13:30;93318.31;;;10.48;78.87
35892;BME280;21993;42.672;23.296;2023-04-04T05:15:56;93313.91;;;10.49;79.17
35892;BME280;21993;42.672;23.296;2023-04-04T05:18:22;93327.66;;;10.51;78.72
35892;BME280;21993;42.672;23.296;2023-04-04T05:20:53;93320.63;;;10.51;79.19
35892;BME280;21993;42.672;23.296;2023-04-04T05:23:19;93327.34;;;10.46;79.30
35892;BME280;21993;42.672;23.296;2023-04-04T05:25:44;93331.63;;;10.47;79.38
35892;BME280;21993;42.672;23.296;2023-04-04T05:28:12;93324.75;;;10.46;79.31
35892;BME280;21993;42.672;23.296;2023-04-04T05:30:37;93338.47;;;10.56;79.53
35892;BME280;21993;42.672;23.296;2023-04-04T05:33:03;93337.84;;;10.54;79.49
35892;BME280;21993;42.672;23.296;2023-04-04T05:35:28;93326.03;;;10.50;79.45
35892;BME280;21993;42.672;23.296;2023-04-04T05:37:54;93337.31;;;10.58;79.59
35892;BME280;21993;42.672;23.296;2023-04-04T05:40:19;93331.91;;;10.60;79.67
35892;BME280;21993;42.672;23.296;2023-04-04T05:42:53;93334.50;;;10.68;79.08
35892;BME280;21993;42.672;23.296;2023-04-04T05:45:18;93330.38;;;10.74;79.32
35892;BME280;21993;42.672;23.296;2023-04-04T05:47:44;93340.72;;;10.67;78.96
35892;BME280;21993;42.672;23.296;2023-04-04T05:50:10;93338.41;;;10.72;79.40
35892;BME280;21993;42.672;23.296;2023-04-04T05:52:35;93340.03;;;10.73;79.75
35892;BME280;21993;42.672;23.296;2023-04-04T05:55:01;93341.38;;;10.69;79.98
35892;BME280;21993;42.672;23.296;2023-04-04T05:57:26;93342.66;;;10.73;79.92
35892;BME280;21993;42.672;23.296;2023-04-04T05:59:52;93337.38;;;10.81;79.66
35892;BME280;21993;42.672;23.296;2023-04-04T06:02:17;93347.03;;;10.89;78.95
35892;BME280;21993;42.672;23.296;2023-04-04T06:04:43;93339.16;;;10.89;79.47
35892;BME280;21993;42.672;23.296;2023-04-04T06:07:09;93338.47;;;10.95;79.03
35892;BME280;21993;42.672;23.296;2023-04-04T06:09:35;93343.06;;;10.93;79.15
35892;BME280;21993;42.672;23.296;2023-04-04T06:12:01;93353.84;;;11.06;78.36
35892;BME280;21993;42.672;23.296;2023-04-04T06:14:29;93356.94;;;11.10;78.27
35892;BME280;21993;42.672;23.296;2023-04-04T06:16:55;93356.16;;;11.01;78.89
35892;BME280;21993;42.672;23.296;2023-04-04T06:19:21;93356.13;;;11.09;78.42
35892;BME280;21993;42.672;23.296;2023-04-04T06:21:46;93363.03;;;11.10;79.13
35892;BME280;21993;42.672;23.296;2023-04-04T06:24:11;93352.75;;;11.23;78.85
35892;BME280;21993;42.672;23.296;2023-04-04T06:26:37;93358.16;;;11.30;78.24
35892;BME280;21993;42.672;23.296;2023-04-04T06:29:02;93367.66;;;11.31;78.05
35892;BME280;21993;42.672;23.296;2023-04-04T06:31:28;93368.59;;;11.38;78.54
35892;BME280;21993;42.672;23.296;2023-04-04T06:33:55;93369.94;;;11.34;77.94
35892;BME280;21993;42.672;23.296;2023-04-04T06:36:20;93388.81;;;11.38;77.59
35892;BME280;21993;42.672;23.296;2023-04-04T06:38:45;93388.75;;;11.46;74.58
35892;BME280;21993;42.672;23.296;2023-04-04T06:41:11;93397.88;;;11.35;73.84
35892;BME280;21993;42.672;23.296;2023-04-04T06:43:36;93410.50;;;11.32;71.98
35892;BME280;21993;42.672;23.296;2023-04-04T06:46:02;93403.94;;;10.96;71.00
35892;BME280;21993;42.672;23.296;2023-04-04T06:48:28;93408.59;;;10.86;69.71
35892;BME280;21993;42.672;23.296;2023-04-04T06:50:53;93418.84;;;10.49;69.14
35892;BME280;21993;42.672;23.296;2023-04-04T06:53:19;93426.72;;;10.08;69.60
35892;BME280;21993;42.672;23.296;2023-04-04T06:55:44;93425.88;;;9.91;69.12
35892;BME280;21993;42.672;23.296;2023-04-04T06:58:10;93431.94;;;10.08;69.51
35892;BME280;21993;42.672;23.296;2023-04-04T07:00:35;93433.44;;;10.02;68.40
35892;BME280;21993;42.672;23.296;2023-04-04T07:03:00;93443.25;;;10.08;67.36
35892;BME280;21993;42.672;23.296;2023-04-04T07:05:26;93459.00;;;9.84;67.44
35892;BME280;21993;42.672;23.296;2023-04-04T07:07:53;93474.28;;;9.38;67.24
35892;BME280;21993;42.672;23.296;2023-04-04T07:10:20;93478.00;;;9.27;67.14
35892;BME280;21993;42.672;23.296;2023-04-04T07:12:45;93489.91;;;9.22;68.07
35892;BME280;21993;42.672;23.296;2023-04-04T07:15:10;93494.91;;;9.07;67.57
35892;BME280;21993;42.672;23.296;2023-04-04T07:17:37;93488.75;;;9.16;67.41
35892;BME280;21993;42.672;23.296;2023-04-04T07:20:04;93507.06;;;9.08;67.46
35892;BME280;21993;42.672;23.296;2023-04-04T07:22:30;93515.13;;;8.89;67.08
35892;BME280;21993;42.672;23.296;2023-04-04T07:24:55;93519.47;;;8.80;66.76
35892;BME280;21993;42.672;23.296;2023-04-04T07:27:21;93527.31;;;8.80;66.61
35892;BME280;21993;42.672;23.296;2023-04-04T07:29:46;93543.06;;;8.88;67.11
35892;BME280;21993;42.672;23.296;2023-04-04T07:32:12;93530.66;;;8.64;66.20
35892;BME280;21993;42.672;23.296;2023-04-04T07:34:37;93538.78;;;8.79;66.27
35892;BME280;21993;42.672;23.296;2023-04-04T07:37:02;93542.63;;;8.67;66.02
35892;BME280;21993;42.672;23.296;2023-04-04T07:39:28;93553.75;;;8.69;65.39
35892;BME280;21993;42.672;23.296;2023-04-04T07:41:53;93557.94;;;8.62;66.55
35892;BME280;21993;42.672;23.296;2023-04-04T07:44:19;93559.94;;;8.42;67.17
35892;BME280;21993;42.672;23.296;2023-04-04T07:46:44;93560.44;;;8.45;66.41
35892;BME280;21993;42.672;23.296;2023-04-04T07:49:10;93568.72;;;8.59;66.13
35892;BME280;21993;42.672;23.296;2023-04-04T07:51:35;93563.94;;;8.54;65.85
35892;BME280;21993;42.672;23.296;2023-04-04T07:54:01;93551.78;;;8.45;66.31
35892;BME280;21993;42.672;23.296;2023-04-04T07:56:27;93560.50;;;8.54;66.04
35892;BME280;21993;42.672;23.296;2023-04-04T07:58:53;93563.44;;;8.51;65.72
35892;BME280;21993;42.672;23.296;2023-04-04T08:01:18;93567.53;;;8.53;65.74
35892;BME280;21993;42.672;23.296;2023-04-04T08:03:45;93580.03;;;8.41;65.24
35892;BME280;21993;42.672;23.296;2023-04-04T08:06:11;93588.69;;;8.42;65.21
35892;BME280;21993;42.672;23.296;2023-04-04T08:08:37;93582.50;;;8.43;65.16
35892;BME280;21993;42.672;23.296;2023-04-04T08:11:02;93587.41;;;8.46;65.32
35892;BME280;21993;42.672;23.296;2023-04-04T08:13:28;93591.59;;;8.39;64.43
35892;BME280;21993;42.672;23.296;2023-04-04T08:15:53;93594.63;;;8.34;65.03
35892;BME280;21993;42.672;23.296;2023-04-04T08:18:19;93603.47;;;8.33;64.62
35892;BME280;21993;42.672;23.296;2023-04-04T08:20:44;93606.91;;;8.52;64.95
35892;BME280;21993;42.672;23.296;2023-04-04T08:23:10;93610.72;;;8.39;64.45
35892;BME280;21993;42.672;23.296;2023-04-04T08:25:37;93616.28;;;8.27;65.30
35892;BME280;21993;42.672;23.296;2023-04-04T08:28:03;93617.63;;;8.31;65.25
35892;BME280;21993;42.672;23.296;2023-04-04T08:30:29;93623.59;;;8.23;64.92
35892;BME280;21993;42.672;23.296;2023-04-04T08:32:55;93626.13;;;8.15;65.48
35892;BME280;21993;42.672;23.296;2023-04-04T08:35:20;93629.22;;;7.83;65.68
35892;BME280;21993;42.672;23.296;2023-04-04T08:37:46;93629.78;;;8.04;64.29
35892;BME280;21993;42.672;23.296;2023-04-04T08:40:12;93629.63;;;8.06;64.98
35892;BME280;21993;42.672;23.296;2023-04-04T08:42:39;93629.53;;;8.25;65.40
35892;BME280;21993;42.672;23.296;2023-04-04T08:45:06;93627.88;;;8.24;63.86
35892;BME280;21993;42.672;23.296;2023-04-04T08:47:36;93638.81;;;7.92;63.97
35892;BME280;21993;42.672;23.296;2023-04-04T08:50:03;93639.25;;;8.05;65.02
35892;BME280;21993;42.672;23.296;2023-04-04T08:52:30;93645.66;;;7.93;64.47
35892;BME280;21993;42.672;23.296;2023-04-04T08:54:57;93650.31;;;7.72;64.48
35892;BME280;21993;42.672;23.296;2023-04-04T08:57:22;93651.66;;;7.76;65.25
35892;BME280;21993;42.672;23.296;2023-04-04T08:59:48;93656.91;;;7.76;64.01
35892;BME280;21993;42.672;23.296;2023-04-04T09:02:33;93657.06;;;7.65;64.56
35892;BME280;21993;42.672;23.296;2023-04-04T09:05:01;93649.81;;;7.58;63.91
35892;BME280;21993;42.672;23.296;2023-04-04T09:07:28;93647.06;;;7.60;63.58
35892;BME280;21993;42.672;23.296;2023-04-04T09:09:54;93653.41;;;7.48;64.12
35892;BME280;21993;42.672;23.296;2023-04-04T09:12:21;93655.81;;;7.69;63.84
35892;BME280;21993;42.672;23.296;2023-04-04T09:14:49;93656.59;;;7.79;62.56
35892;BME280;21993;42.672;23.296;2023-04-04T09:17:16;93663.72;;;7.86;63.29
35892;BME280;21993;42.672;23.296;2023-04-04T09:19:41;93661.63;;;7.90;63.20
35892;BME280;21993;42.672;23.296;2023-04-04T09:22:08;93663.75;;;8.04;62.75
35892;BME280;21993;42.672;23.296;2023-04-04T09:24:40;93667.34;;;8.03;62.08
35892;BME280;21993;42.672;23.296;2023-04-04T09:27:08;93659.25;;;7.97;62.46
35892;BME280;21993;42.672;23.296;2023-04-04T09:29:34;93659.41;;;7.95;62.65
35892;BME280;21993;42.672;23.296;2023-04-04T09:32:23;93664.06;;;8.01;61.94
35892;BME280;21993;42.672;23.296;2023-04-04T09:34:49;93664.78;;;7.94;61.43
35892;BME280;21993;42.672;23.296;2023-04-04T09:37:23;93678.75;;;7.75;62.48
35892;BME280;21993;42.672;23.296;2023-04-04T09:39:49;93684.25;;;7.72;61.88
35892;BME280;21993;42.672;23.296;2023-04-04T09:42:15;93680.72;;;7.63;62.90
35892;BME280;21993;42.672;23.296;2023-04-04T09:44:40;93672.16;;;7.71;62.21
35892;BME280;21993;42.672;23.296;2023-04-04T09:47:25;93673.03;;;7.89;62.36
35892;BME280;21993;42.672;23.296;2023-04-04T09:49:52;93685.88;;;7.82;62.42
35892;BME280;21993;42.672;23.296;2023-04-04T09:52:18;93690.59;;;7.69;62.33
35892;BME280;21993;42.672;23.296;2023-04-04T09:57:33;93676.81;;;7.77;62.40
35892;BME280;21993;42.672;23.296;2023-04-04T10:00:03;93682.88;;;7.40;62.42
35892;BME280;21993;42.672;23.296;2023-04-04T10:02:30;93675.75;;;7.32;62.46
35892;BME280;21993;42.672;23.296;2023-04-04T10:04:56;93672.53;;;7.39;61.69
35892;BME280;21993;42.672;23.296;2023-04-04T10:07:26;93672.78;;;7.55;62.23
35892;BME280;21993;42.672;23.296;2023-04-04T10:09:53;93675.91;;;7.68;61.74
35892;BME280;21993;42.672;23.296;2023-04-04T10:12:25;93686.66;;;7.55;62.54
35892;BME280;21993;42.672;23.296;2023-04-04T10:15:00;93693.28;;;7.50;62.32
35892;BME280;21993;42.672;23.296;2023-04-04T10:17:44;93682.91;;;7.68;61.30
35892;BME280;21993;42.672;23.296;2023-04-04T10:20:12;93690.66;;;7.87;60.45
35892;BME280;21993;42.672;23.296;2023-04-04T10:22:39;93697.63;;;7.96;60.76
35892;BME280;21993;42.672;23.296;2023-04-04T10:25:06;93696.59;;;8.07;59.87
35892;BME280;21993;42.672;23.296;2023-04-04T10:27:32;93699.66;;;8.02;60.41
35892;BME280;21993;42.672;23.296;2023-04-04T10:30:01;93702.50;;;7.81;61.42
35892;BME280;21993;42.672;23.296;2023-04-04T10:35:02;93713.25;;;8.06;60.08
35892;BME280;21993;42.672;23.296;2023-04-04T10:37:59;93715.91;;;7.96;60.73
35892;BME280;21993;42.672;23.296;2023-04-04T10:40:30;93720.53;;;8.12;59.37
35892;BME280;21993;42.672;23.296;2023-04-04T10:43:01;93720.31;;;7.96;60.03
35892;BME280;21993;42.672;23.296;2023-04-04T10:45:28;93724.16;;;8.01;58.70
35892;BME280;21993;42.672;23.296;2023-04-04T10:47:55;93723.50;;;7.89;59.43
35892;BME280;21993;42.672;23.296;2023-04-04T10:50:21;93724.41;;;8.08;58.72
35892;BME280;21993;42.672;23.296;2023-04-04T10:52:47;93732.53;;;8.05;58.66
35892;BME280;21993;42.672;23.296;2023-04-04T10:55:14;93743.00;;;7.95;59.04
35892;BME280;21993;42.672;23.296;2023-04-04T10:57:42;93741.63;;;8.01;59.43
35892;BME280;21993;42.672;23.296;2023-04-04T11:00:10;93734.53;;;7.83;59.31
35892;BME280;21993;42.672;23.296;2023-04-04T11:02:55;93741.47;;;8.02;58.30
35892;BME280;21993;42.672;23.296;2023-04-04T11:05:25;93732.56;;;7.95;58.20
35892;BME280;21993;42.672;23.296;2023-04-04T11:08:02;93736.47;;;7.81;58.46
35892;BME280;21993;42.672;23.296;2023-04-04T11:10:32;93738.13;;;7.73;59.00
35892;BME280;21993;42.672;23.296;2023-04-04T11:13:01;93728.84;;;7.60;58.98
35892;BME280;21993;42.672;23.296;2023-04-04T11:15:55;93757.13;;;7.75;60.05
35892;BME280;21993;42.672;23.296;2023-04-04T11:18:44;93762.00;;;7.50;60.46
35892;BME280;21993;42.672;23.296;2023-04-04T11:21:09;93760.28;;;7.69;59.45
35892;BME280;21993;42.672;23.296;2023-04-04T11:26:15;93761.63;;;7.82;59.49
35892;BME280;21993;42.672;23.296;2023-04-04T11:28:43;93765.81;;;7.66;59.66
35892;BME280;21993;42.672;23.296;2023-04-04T11:34:01;93764.59;;;7.50;60.62
35892;BME280;21993;42.672;23.296;2023-04-04T11:39:12;93767.03;;;7.61;61.17
35892;BME280;21993;42.672;23.296;2023-04-04T11:44:16;93777.78;;;7.39;61.35
35892;BME280;21993;42.672;23.296;2023-04-04T11:46:43;93774.50;;;7.37;61.03
35892;BME280;21993;42.672;23.296;2023-04-04T11:49:09;93769.28;;;7.37;61.19
35892;BME280;21993;42.672;23.296;2023-04-04T11:51:37;93766.28;;;7.13;60.64
35892;BME280;21993;42.672;23.296;2023-04-04T11:54:03;93771.75;;;7.39;61.06
35892;BME280;21993;42.672;23.296;2023-04-04T11:56:34;93769.44;;;7.36;61.17
35892;BME280;21993;42.672;23.296;2023-04-04T11:59:02;93782.47;;;7.36;61.28
35892;BME280;21993;42.672;23.296;2023-04-04T12:01:30;93773.03;;;7.25;61.85
35892;BME280;21993;42.672;23.296;2023-04-04T12:03:58;93774.78;;;7.44;61.19
35892;BME280;21993;42.672;23.296;2023-04-04T12:06:24;93770.94;;;7.38;61.32
35892;BME280;21993;42.672;23.296;2023-04-04T12:08:51;93774.38;;;7.39;61.61
35892;BME280;21993;42.672;23.296;2023-04-04T12:11:16;93780.53;;;7.47;60.97
35892;BME280;21993;42.672;23.296;2023-04-04T12:13:44;93778.06;;;7.65;60.04
35892;BME280;21993;42.672;23.296;2023-04-04T12:16:10;93774.75;;;7.53;60.17
35892;BME280;21993;42.672;23.296;2023-04-04T12:18:36;93778.44;;;7.70;60.04
35892;BME280;21993;42.672;23.296;2023-04-04T12:21:02;93777.63;;;7.60;60.69
35892;BME280;21993;42.672;23.296;2023-04-04T12:23:33;93773.28;;;7.41;60.58
35892;BME280;21993;42.672;23.296;2023-04-04T12:25:59;93776.28;;;7.46;60.66
35892;BME280;21993;42.672;23.296;2023-04-04T12:28:28;93782.47;;;7.45;60.87
35892;BME280;21993;42.672;23.296;2023-04-04T12:30:55;93777.41;;;7.34;61.00
35892;BME280;21993;42.672;23.296;2023-04-04T12:33:21;93791.66;;;7.40;60.06
35892;BME280;21993;42.672;23.296;2023-04-04T12:35:53;93781.53;;;7.27;60.58
35892;BME280;21993;42.672;23.296;2023-04-04T12:38:19;93793.47;;;7.29;60.89
35892;BME280;21993;42.672;23.296;2023-04-04T12:40:45;93786.63;;;7.19;60.25
35892;BME280;21993;42.672;23.296;2023-04-04T12:43:15;93799.53;;;7.11;61.36
35892;BME280;21993;42.672;23.296;2023-04-04T12:45:42;93795.28;;;7.10;60.93
35892;BME280;21993;42.672;23.296;2023-04-04T12:48:12;93786.88;;;7.06;60.87
35892;BME280;21993;42.672;23.296;2023-04-04T12:53:27;93789.78;;;6.93;61.11
35892;BME280;21993;42.672;23.296;2023-04-04T12:55:54;93805.44;;;7.03;61.43
35892;BME280;21993;42.672;23.296;2023-04-04T12:58:21;93802.97;;;7.01;61.74
35892;BME280;21993;42.672;23.296;2023-04-04T13:00:49;93801.72;;;7.05;61.98
35892;BME280;21993;42.672;23.296;2023-04-04T13:03:16;93805.03;;;6.98;61.61
35892;BME280;21993;42.672;23.296;2023-04-04T13:05:46;93811.06;;;6.98;62.16
35892;BME280;21993;42.672;23.296;2023-04-04T13:08:12;93807.09;;;7.23;63.04
35892;BME280;21993;42.672;23.296;2023-04-04T13:13:37;93820.25;;;6.83;62.99
35892;BME280;21993;42.672;23.296;2023-04-04T13:16:04;93832.69;;;6.60;63.85